aviador You're here:

KCBM Decoded Metar

COLOMBUS in MS, USA
Report Time2017-06-29 06:58:00
UTC Time2017-06-29 07:15:08
Flight Rules vfr VFR
Wind170° at 05 kt
W.Decomp.*RWY 13: 3.8 kt HW 3.2 kt RCW
W.Rank170° ranks 4
Current wind is below 170° avg. (6.7)
Visibility9999 m
Phenomena:N/A
Clouds:N/A
Expected CloudBase > 400 ft AGL from Temp-Dew spread
CeilingNone
Temp23°C (ISA +8)
Dew Point22°C (94% RH)
QNH1017 hPa
Density Alt1,414 ft
Elevation220 ft
Report Wrong Elevation
Raw Report
KCBM 290658Z AUTO 17005KT 10SM CLR 23/22 A3002 RMK AO2 SLP166
T02270216 TSNO $=

Extra information for KCBM:More info

Metar Taf Metar & Taf Last 4 Metars F.Rules Stats Wind Profile Meteogram Temp Stats Airport Information Weather charts Add Link Nearby VenuesMetar ALERT Operation Metar Decoded Social comments

AIRNAV info for KCBM